Time;durP1;ratioP1;P1;durP2;ratioP2;P2;SDS_P1;SDS_P2;PMS_P1;PMS_P2;Temp;Humidity;BMP_temperature;BMP_pressure;BME280_temperature;BME280_humidity;BME280_pressure;Samples;Min_cycle;Max_cycle;Signal;HPM_P1;HPM_P2
2022/06/07 00:02:30;;;;;;;2.00;1.30;;;21.80;67.40;;;;;;5106981;27;43765;-69
2022/06/07 00:04:58;;;;;;;1.60;1.50;;;22.00;66.80;;;;;;5068709;28;43431;-68
2022/06/07 00:07:26;;;;;;;1.20;1.20;;;22.20;66.50;;;;;;5088052;27;43939;-69
2022/06/07 00:09:55;;;;;;;1.40;1.40;;;22.30;66.00;;;;;;5087343;28;43980;-69
2022/06/07 00:12:24;;;;;;;1.20;1.20;;;22.50;65.50;;;;;;5086851;28;44034;-69
2022/06/07 00:14:52;;;;;;;1.30;1.30;;;22.60;65.10;;;;;;5100827;27;43937;-68
2022/06/07 00:17:22;;;;;;;1.43;1.30;;;22.70;64.60;;;;;;5107450;27;44004;-68
2022/06/07 00:19:50;;;;;;;1.20;1.20;;;22.80;64.30;;;;;;5107146;27;44825;-69
2022/06/07 00:22:18;;;;;;;1.30;1.30;;;22.90;63.80;;;;;;5106818;27;43411;-69
2022/06/07 00:24:46;;;;;;;1.27;1.20;;;23.00;63.50;;;;;;5088326;27;44006;-69
2022/06/07 00:27:15;;;;;;;1.33;1.33;;;22.90;63.60;;;;;;5107383;27;44015;-69
2022/06/07 00:29:45;;;;;;;1.30;1.30;;;22.80;64.00;;;;;;5106948;27;43928;-68
2022/06/07 00:32:13;;;;;;;1.30;1.30;;;22.60;64.50;;;;;;5088125;27;44832;-69
2022/06/07 00:34:41;;;;;;;1.20;1.20;;;22.40;64.60;;;;;;5092745;27;43937;-68
2022/06/07 00:37:09;;;;;;;1.37;1.37;;;22.20;65.00;;;;;;5069069;27;43465;-69
2022/06/07 00:39:40;;;;;;;1.20;1.20;;;22.10;65.40;;;;;;5068391;27;45443;-69
2022/06/07 00:42:09;;;;;;;1.40;1.40;;;22.00;65.70;;;;;;5068665;27;45841;-68
2022/06/07 00:44:38;;;;;;;1.10;1.10;;;21.90;66.10;;;;;;5087198;27;43440;-68
2022/06/07 00:47:10;;;;;;;1.50;1.50;;;21.80;66.20;;;;;;5068862;27;43492;-69
2022/06/07 00:49:42;;;;;;;1.20;1.20;;;21.80;66.50;;;;;;5087004;27;44778;-68
2022/06/07 00:52:10;;;;;;;1.40;1.40;;;21.70;66.60;;;;;;5087024;27;43876;-68
2022/06/07 00:54:39;;;;;;;1.37;1.37;;;21.70;66.80;;;;;;5068699;27;43942;-68
2022/06/07 00:57:23;;;;;;;1.10;1.10;;;21.60;66.70;;;;;;5068367;28;44064;-69
2022/06/07 00:59:51;;;;;;;1.47;1.47;;;21.60;66.90;;;;;;5068555;28;47088;-68
2022/06/07 01:02:24;;;;;;;1.30;1.30;;;21.60;67.00;;;;;;5068250;28;44693;-68
2022/06/07 01:04:53;;;;;;;1.50;1.50;;;21.60;67.00;;;;;;5068450;28;43968;-69
2022/06/07 01:12:58;;;;;;;1.03;1.03;;;21.50;67.10;;;;;;5068307;28;44913;-69
2022/06/07 01:15:29;;;;;;;1.10;1.10;;;21.50;67.10;;;;;;5068481;28;43411;-69
2022/06/07 01:18:02;;;;;;;1.20;1.20;;;21.50;67.10;;;;;;5077315;27;43489;-69
2022/06/07 01:20:32;;;;;;;1.20;1.20;;;21.50;67.40;;;;;;5091309;27;45965;-68
2022/06/07 01:23:02;;;;;;;1.20;1.20;;;21.60;67.90;;;;;;5109897;27;44020;-70
2022/06/07 01:25:30;;;;;;;1.20;1.20;;;21.70;67.60;;;;;;5078419;28;43792;-69
2022/06/07 01:28:01;;;;;;;1.30;1.30;;;21.90;67.00;;;;;;5072356;27;43443;-70
2022/06/07 01:30:30;;;;;;;1.37;1.27;;;22.10;66.50;;;;;;5071638;27;47053;-69
2022/06/07 01:32:58;;;;;;;1.20;1.20;;;22.20;66.10;;;;;;5071391;27;44886;-69
2022/06/07 01:35:29;;;;;;;1.30;1.30;;;22.40;65.70;;;;;;5090320;27;43273;-68
2022/06/07 01:37:57;;;;;;;1.10;1.10;;;22.50;65.20;;;;;;5090203;27;43900;-69
2022/06/07 01:43:15;;;;;;;1.27;1.27;;;22.80;65.10;;;;;;5089947;27;43391;-69
2022/06/07 01:45:44;;;;;;;1.10;1.10;;;23.00;64.10;;;;;;5071480;28;43924;-69
2022/06/07 01:48:13;;;;;;;1.20;1.20;;;23.00;63.60;;;;;;5071372;28;43952;-68
2022/06/07 01:50:41;;;;;;;1.20;1.20;;;22.90;63.50;;;;;;5089868;27;43998;-69
2022/06/07 01:53:09;;;;;;;1.20;1.20;;;22.80;64.00;;;;;;5070999;28;44588;-69
2022/06/07 01:55:39;;;;;;;1.00;1.00;;;22.60;64.50;;;;;;5071263;28;44027;-69
2022/06/07 01:58:11;;;;;;;1.10;1.10;;;22.40;64.60;;;;;;5071232;28;44086;-69
2022/06/07 02:00:39;;;;;;;1.17;1.17;;;22.20;64.90;;;;;;5070888;28;43938;-68
2022/06/07 02:03:08;;;;;;;1.10;1.10;;;22.10;65.40;;;;;;5070992;28;44051;-69
2022/06/07 02:05:36;;;;;;;1.30;1.20;;;22.00;65.80;;;;;;5071357;28;44019;-69
2022/06/07 02:08:04;;;;;;;1.07;1.07;;;21.90;66.10;;;;;;5071463;28;44099;-70
2022/06/07 02:10:36;;;;;;;1.30;1.30;;;21.80;66.30;;;;;;5071153;28;44820;-68
2022/06/07 02:13:14;;;;;;;1.00;1.00;;;21.70;66.50;;;;;;5071262;28;44895;-68
2022/06/07 02:15:42;;;;;;;1.37;1.37;;;21.70;66.70;;;;;;5090787;27;43298;-69
2022/06/07 02:18:10;;;;;;;1.17;1.17;;;21.60;66.80;;;;;;5090532;27;43956;-69
2022/06/07 02:20:49;;;;;;;1.30;1.30;;;21.60;66.90;;;;;;5090275;27;44122;-69
2022/06/07 02:23:17;;;;;;;1.30;1.30;;;21.60;67.00;;;;;;5090202;27;44378;-69
2022/06/07 02:25:47;;;;;;;1.10;1.10;;;21.50;66.90;;;;;;5090428;27;44031;-69
2022/06/07 02:28:17;;;;;;;1.10;1.10;;;21.50;67.00;;;;;;5109080;27;43992;-68
2022/06/07 02:30:45;;;;;;;1.20;1.20;;;21.50;67.10;;;;;;5090230;27;43983;-68
2022/06/07 02:33:13;;;;;;;1.20;1.20;;;21.50;67.10;;;;;;5108378;27;43418;-68
2022/06/07 02:35:41;;;;;;;1.30;1.20;;;21.50;67.20;;;;;;5108806;27;43403;-68
2022/06/07 02:38:12;;;;;;;1.13;1.13;;;21.50;67.20;;;;;;5090340;27;43837;-68
2022/06/07 02:40:41;;;;;;;1.30;1.30;;;21.50;67.20;;;;;;5089801;27;46850;-68
2022/06/07 02:43:09;;;;;;;1.10;1.10;;;21.50;67.20;;;;;;5108613;27;43947;-69
2022/06/07 02:45:42;;;;;;;1.20;1.20;;;21.50;67.90;;;;;;5108791;27;43345;-68
2022/06/07 02:48:10;;;;;;;1.20;1.20;;;21.60;67.70;;;;;;5090107;27;43933;-68
2022/06/07 02:50:41;;;;;;;1.00;1.00;;;21.80;67.20;;;;;;5089702;27;44148;-68
2022/06/07 02:53:10;;;;;;;1.10;1.10;;;22.00;66.70;;;;;;5108407;27;43945;-69
2022/06/07 02:55:38;;;;;;;1.13;1.13;;;22.10;66.20;;;;;;5090036;27;43910;-69
2022/06/07 02:58:17;;;;;;;1.03;1.03;;;22.30;66.60;;;;;;5089955;27;43829;-69
2022/06/07 03:00:47;;;;;;;1.00;1.00;;;22.50;65.30;;;;;;5070621;28;44071;-69
2022/06/07 03:03:18;;;;;;;0.90;0.90;;;22.60;64.90;;;;;;5087959;27;43897;-69
2022/06/07 03:05:47;;;;;;;1.27;1.27;;;22.80;64.60;;;;;;5089898;27;44100;-69
2022/06/07 03:08:21;;;;;;;1.00;1.00;;;22.90;64.30;;;;;;5089805;27;44183;-68
2022/06/07 03:10:52;;;;;;;1.07;1.07;;;22.90;63.80;;;;;;5089610;27;44861;-68
2022/06/07 03:13:20;;;;;;;1.30;1.20;;;22.90;63.60;;;;;;5089394;27;44588;-68
2022/06/07 03:15:52;;;;;;;1.17;1.17;;;22.80;63.90;;;;;;5089708;27;43998;-68
2022/06/07 03:18:22;;;;;;;1.00;1.00;;;22.60;64.50;;;;;;5089642;27;44087;-69
2022/06/07 03:20:51;;;;;;;1.03;1.03;;;22.40;64.60;;;;;;5089308;27;45716;-68
2022/06/07 03:23:21;;;;;;;2.00;1.20;;;22.20;64.90;;;;;;5089238;27;43880;-69
2022/06/07 03:26:03;;;;;;;0.97;0.97;;;22.10;65.40;;;;;;5089346;27;43940;-69
2022/06/07 03:28:33;;;;;;;1.90;1.30;;;21.90;65.70;;;;;;5082557;27;43574;-69
2022/06/07 03:31:08;;;;;;;1.53;1.17;;;21.80;66.00;;;;;;5076177;27;46598;-69
2022/06/07 03:33:43;;;;;;;6.03;1.50;;;21.70;66.30;;;;;;5069629;27;43784;-68
2022/06/07 03:36:14;;;;;;;1.17;1.17;;;21.70;66.60;;;;;;5069994;27;43901;-69
2022/06/07 03:38:43;;;;;;;1.13;1.03;;;21.60;66.70;;;;;;5087638;27;44106;-69
2022/06/07 03:41:16;;;;;;;1.13;1.10;;;21.60;66.80;;;;;;5071544;27;45898;-68
2022/06/07 03:43:45;;;;;;;1.10;1.10;;;21.60;66.90;;;;;;5089177;27;43939;-68
2022/06/07 03:46:17;;;;;;;1.50;1.13;;;21.50;67.00;;;;;;5089325;27;44103;-68
2022/06/07 03:48:45;;;;;;;1.10;1.10;;;21.50;67.80;;;;;;5089356;27;44070;-69
2022/06/07 03:51:15;;;;;;;0.97;0.97;;;21.50;67.10;;;;;;5072638;27;43841;-69
2022/06/07 03:53:44;;;;;;;1.40;1.30;;;21.50;67.20;;;;;;5069599;28;45607;-68
2022/06/07 03:56:13;;;;;;;1.10;1.10;;;21.50;67.20;;;;;;5072849;27;43380;-69
2022/06/07 03:58:44;;;;;;;2.40;1.00;;;21.50;67.20;;;;;;5085057;28;44079;-69
2022/06/07 04:01:15;;;;;;;1.10;1.10;;;21.50;67.30;;;;;;5082728;28;46746;-68
2022/06/07 04:03:48;;;;;;;1.53;1.10;;;21.50;67.30;;;;;;5069415;28;44717;-68
2022/06/07 04:06:19;;;;;;;1.70;1.10;;;21.50;67.50;;;;;;5069591;28;43499;-69
2022/06/07 04:08:49;;;;;;;1.53;1.20;;;21.50;67.90;;;;;;5088586;27;43888;-69
2022/06/07 04:11:20;;;;;;;1.07;1.07;;;21.70;67.70;;;;;;5088725;27;45977;-69
2022/06/07 04:13:55;;;;;;;1.23;1.23;;;21.90;67.30;;;;;;5088668;27;44671;-69
2022/06/07 04:16:25;;;;;;;1.30;1.30;;;22.00;66.20;;;;;;5107728;27;43903;-70
2022/06/07 04:18:58;;;;;;;2.23;1.20;;;22.20;66.70;;;;;;5089187;27;43880;-68
2022/06/07 04:21:28;;;;;;;2.13;1.20;;;22.40;65.50;;;;;;5073899;27;44192;-68
2022/06/07 04:24:12;;;;;;;1.00;1.00;;;22.50;65.00;;;;;;5079885;27;44622;-69
2022/06/07 04:26:40;;;;;;;4.00;1.00;;;22.70;64.70;;;;;;5088558;27;43927;-69
2022/06/07 04:29:09;;;;;;;2.43;1.00;;;22.80;64.20;;;;;;5089238;27;44047;-68
2022/06/07 04:31:39;;;;;;;1.00;1.00;;;22.90;63.90;;;;;;5075400;27;43944;-68
2022/06/07 04:34:13;;;;;;;2.30;1.33;;;22.80;63.60;;;;;;5076846;28;44739;-69
2022/06/07 04:36:42;;;;;;;1.07;1.07;;;22.70;63.90;;;;;;5069124;28;43942;-70
2022/06/07 04:39:14;;;;;;;1.07;1.07;;;22.60;64.50;;;;;;5069470;28;43738;-68
2022/06/07 04:41:51;;;;;;;1.10;1.10;;;22.40;64.60;;;;;;5082392;27;44177;-69
2022/06/07 04:44:25;;;;;;;1.30;1.20;;;22.20;65.00;;;;;;5087318;27;43951;-69
2022/06/07 04:46:56;;;;;;;1.03;1.03;;;22.00;66.10;;;;;;5068777;27;43960;-69
2022/06/07 04:49:27;;;;;;;1.03;1.03;;;21.80;65.70;;;;;;5069237;27;44010;-69
2022/06/07 04:51:57;;;;;;;1.03;1.03;;;21.80;66.10;;;;;;5080492;27;45698;-68
2022/06/07 04:54:36;;;;;;;1.20;1.20;;;21.70;66.40;;;;;;5088178;28;44002;-69
2022/06/07 04:57:07;;;;;;;1.70;0.93;;;21.60;66.60;;;;;;5072359;28;43961;-68
2022/06/07 04:59:40;;;;;;;1.20;1.20;;;21.60;66.80;;;;;;5090818;27;43921;-68
2022/06/07 05:02:09;;;;;;;1.17;1.17;;;21.50;66.90;;;;;;5091862;27;44895;-69
2022/06/07 05:04:37;;;;;;;0.80;0.80;;;21.50;66.90;;;;;;5073218;28;44882;-69
2022/06/07 05:07:20;;;;;;;1.00;1.00;;;21.50;67.00;;;;;;5072331;27;43923;-68
2022/06/07 05:09:55;;;;;;;1.10;1.10;;;21.50;67.10;;;;;;5072507;27;43454;-68
2022/06/07 05:12:47;;;;;;;0.90;0.90;;;21.50;67.20;;;;;;5071950;28;46736;-68
2022/06/07 05:15:20;;;;;;;1.00;1.00;;;21.50;67.20;;;;;;5072074;28;44042;-68
2022/06/07 05:17:54;;;;;;;1.10;1.10;;;21.50;67.90;;;;;;5072015;28;44039;-69
2022/06/07 05:20:26;;;;;;;1.10;1.10;;;21.50;67.20;;;;;;5085787;27;43815;-69
2022/06/07 05:23:09;;;;;;;1.10;1.10;;;21.50;67.20;;;;;;5089465;27;44109;-69
2022/06/07 05:25:44;;;;;;;1.33;1.10;;;21.50;67.20;;;;;;5081386;27;43347;-69
2022/06/07 05:28:13;;;;;;;1.00;1.00;;;21.50;67.70;;;;;;5091391;27;43882;-69
2022/06/07 05:30:41;;;;;;;1.00;1.00;;;21.50;67.90;;;;;;5110533;27;43983;-69
2022/06/07 05:33:18;;;;;;;1.00;1.00;;;21.70;67.40;;;;;;5091340;27;43938;-69
2022/06/07 05:35:52;;;;;;;0.90;0.90;;;21.90;67.00;;;;;;5091197;27;43990;-68
2022/06/07 05:38:21;;;;;;;1.10;1.10;;;22.00;66.40;;;;;;5091213;27;43952;-69
2022/06/07 05:41:13;;;;;;;1.00;1.00;;;22.30;66.10;;;;;;5091759;27;43861;-68
2022/06/07 05:43:42;;;;;;;1.33;1.07;;;22.40;65.40;;;;;;5091156;27;45710;-68
2022/06/07 05:46:12;;;;;;;1.10;1.10;;;22.60;65.00;;;;;;5090900;27;45499;-69
2022/06/07 05:48:53;;;;;;;0.87;0.87;;;22.70;64.60;;;;;;5091016;27;44049;-69
2022/06/07 05:51:32;;;;;;;0.90;0.90;;;22.80;64.20;;;;;;5079808;28;43870;-68
2022/06/07 05:54:00;;;;;;;1.03;1.03;;;22.90;63.80;;;;;;5071468;28;45062;-68
2022/06/07 05:56:29;;;;;;;1.10;1.10;;;22.90;63.70;;;;;;5070992;28;43427;-68
2022/06/07 05:58:57;;;;;;;1.00;1.00;;;22.80;64.10;;;;;;5091001;27;43883;-69
2022/06/07 06:01:26;;;;;;;0.93;0.93;;;22.60;64.50;;;;;;5091340;27;44167;-69
2022/06/07 06:04:00;;;;;;;1.20;1.20;;;22.40;64.80;;;;;;5077347;28;45662;-69
2022/06/07 06:06:33;;;;;;;1.00;0.93;;;22.20;64.80;;;;;;5071171;27;44957;-69
2022/06/07 06:11:47;;;;;;;0.90;0.90;;;22.00;65.60;;;;;;5071850;27;44000;-69
2022/06/07 06:14:31;;;;;;;1.10;1.10;;;21.90;66.00;;;;;;5090080;27;44033;-69
2022/06/07 06:17:06;;;;;;;1.20;1.20;;;21.80;66.20;;;;;;5084198;28;44672;-69
2022/06/07 06:19:46;;;;;;;1.10;1.10;;;21.70;66.40;;;;;;5079154;27;43818;-69
2022/06/07 06:22:15;;;;;;;1.00;1.00;;;21.70;66.60;;;;;;5109582;27;43975;-69
2022/06/07 06:24:51;;;;;;;0.90;0.90;;;21.60;66.70;;;;;;5080877;27;43995;-68
2022/06/07 06:27:19;;;;;;;0.93;0.93;;;21.60;66.80;;;;;;5070678;27;45856;-68
2022/06/07 06:29:52;;;;;;;0.97;0.97;;;21.60;66.90;;;;;;5089617;27;43863;-68
2022/06/07 06:32:20;;;;;;;0.90;0.90;;;21.50;67.60;;;;;;5071359;28;44078;-69
2022/06/07 06:34:55;;;;;;;0.93;0.93;;;21.50;66.90;;;;;;5081019;27;45658;-69
2022/06/07 06:37:27;;;;;;;1.10;1.10;;;21.50;67.00;;;;;;5090499;27;45590;-69
2022/06/07 06:39:58;;;;;;;1.00;1.00;;;21.50;67.10;;;;;;5090455;27;43894;-68
2022/06/07 06:42:26;;;;;;;1.17;1.17;;;21.50;67.10;;;;;;5090872;27;43527;-68
2022/06/07 06:45:12;;;;;;;1.53;0.90;;;21.50;67.20;;;;;;5104640;27;43487;-69
2022/06/07 06:47:44;;;;;;;1.03;1.03;;;21.50;67.70;;;;;;5070360;27;44505;-69
2022/06/07 06:50:14;;;;;;;1.20;1.10;;;21.60;67.90;;;;;;5070788;27;43894;-69
2022/06/07 06:52:44;;;;;;;1.10;1.10;;;21.70;67.50;;;;;;5071216;27;43966;-69
2022/06/07 06:55:13;;;;;;;1.20;1.20;;;21.90;67.10;;;;;;5070020;27;45868;-69
2022/06/07 06:57:50;;;;;;;1.00;1.00;;;22.00;66.60;;;;;;5088811;27;43733;-69
2022/06/07 07:00:20;;;;;;;1.00;1.00;;;22.20;66.20;;;;;;5087335;27;43991;-68
2022/06/07 07:02:50;;;;;;;0.93;0.93;;;22.40;65.70;;;;;;5086068;28;44037;-69
2022/06/07 07:05:19;;;;;;;0.97;0.97;;;22.50;65.10;;;;;;5099828;27;43968;-70
2022/06/07 07:07:56;;;;;;;1.13;1.13;;;22.70;64.80;;;;;;5089944;27;43937;-70
2022/06/07 07:10:27;;;;;;;1.03;1.03;;;22.80;64.40;;;;;;5089854;27;43933;-69
2022/06/07 07:12:57;;;;;;;0.93;0.93;;;22.90;64.10;;;;;;5108816;27;43357;-69
2022/06/07 07:15:33;;;;;;;0.93;0.93;;;22.90;63.60;;;;;;5088817;27;46419;-69
2022/06/07 07:18:13;;;;;;;1.00;1.00;;;22.90;63.70;;;;;;5089635;27;44925;-68
2022/06/07 07:20:51;;;;;;;0.97;0.97;;;22.80;64.10;;;;;;5089701;27;43967;-69
2022/06/07 07:23:22;;;;;;;1.00;1.00;;;22.60;64.60;;;;;;5079160;28;44009;-68
2022/06/07 07:25:50;;;;;;;1.10;1.10;;;22.40;64.70;;;;;;5098871;27;43840;-68
2022/06/07 07:28:19;;;;;;;0.97;0.97;;;22.20;64.90;;;;;;5089719;27;43954;-69
2022/06/07 07:30:49;;;;;;;0.90;0.90;;;22.10;65.30;;;;;;5089554;27;43924;-69
2022/06/07 07:33:18;;;;;;;1.00;1.00;;;22.00;65.70;;;;;;5083919;28;43873;-69
2022/06/07 07:35:46;;;;;;;0.90;0.90;;;21.90;66.00;;;;;;5069485;28;46191;-68
2022/06/07 07:38:16;;;;;;;1.10;1.10;;;21.80;66.20;;;;;;5069870;28;44432;-69
2022/06/07 07:40:45;;;;;;;0.90;0.90;;;21.70;66.40;;;;;;5069880;28;44091;-68
2022/06/07 07:43:15;;;;;;;1.03;1.03;;;21.70;66.60;;;;;;5077192;28;43848;-68
2022/06/07 07:45:43;;;;;;;1.13;1.13;;;21.60;66.70;;;;;;5088155;27;43844;-69
2022/06/07 07:48:15;;;;;;;1.30;1.20;;;21.60;66.80;;;;;;5075512;27;44053;-69
2022/06/07 07:50:46;;;;;;;1.20;1.20;;;21.60;66.90;;;;;;5089578;27;44035;-69
2022/06/07 07:53:17;;;;;;;1.13;1.13;;;21.60;67.00;;;;;;5083320;27;44095;-69
2022/06/07 07:55:46;;;;;;;1.10;1.10;;;21.50;67.00;;;;;;5069098;27;45503;-68
2022/06/07 07:58:15;;;;;;;1.00;1.00;;;21.50;67.00;;;;;;5069450;27;45398;-68
2022/06/07 08:00:45;;;;;;;0.90;0.90;;;21.50;67.10;;;;;;5069588;27;43521;-68
2022/06/07 08:03:13;;;;;;;1.10;1.10;;;21.50;67.10;;;;;;5076525;27;44138;-68
2022/06/07 08:05:48;;;;;;;1.00;1.00;;;21.50;67.20;;;;;;5094679;27;43923;-69
2022/06/07 08:08:20;;;;;;;1.10;1.10;;;21.50;67.20;;;;;;5087906;27;43976;-69
2022/06/07 08:10:48;;;;;;;1.00;1.00;;;21.50;67.20;;;;;;5088132;27;43880;-69
2022/06/07 08:13:16;;;;;;;1.10;1.10;;;21.50;67.80;;;;;;5104087;27;43901;-69
2022/06/07 08:15:45;;;;;;;1.50;1.00;;;21.60;67.80;;;;;;5107367;27;43947;-68
2022/06/07 08:18:15;;;;;;;1.13;1.13;;;21.70;67.40;;;;;;5097813;27;43443;-67
2022/06/07 08:20:43;;;;;;;0.83;0.83;;;21.90;66.90;;;;;;5087859;27;43990;-68
2022/06/07 08:23:12;;;;;;;1.00;1.00;;;22.10;66.50;;;;;;5088112;27;44001;-68
2022/06/07 08:25:41;;;;;;;0.97;0.97;;;22.20;66.00;;;;;;5103437;27;44381;-68
2022/06/07 08:28:09;;;;;;;0.90;0.90;;;22.40;65.60;;;;;;5107096;27;43968;-68
2022/06/07 08:30:38;;;;;;;1.10;1.10;;;22.50;65.20;;;;;;5089016;27;43785;-69
2022/06/07 08:38:33;;;;;;;1.93;1.00;;;22.80;63.20;;;;;;5087812;27;43842;-68
2022/06/07 08:41:03;;;;;;;1.13;1.13;;;22.70;63.50;;;;;;5087585;27;43762;-69
2022/06/07 08:43:34;;;;;;;1.00;1.00;;;22.60;64.80;;;;;;5088020;27;43927;-69
2022/06/07 08:46:02;;;;;;;1.50;1.40;;;22.40;64.60;;;;;;5086833;27;45090;-69
2022/06/07 08:48:32;;;;;;;1.63;1.53;;;22.20;64.70;;;;;;5087234;27;44083;-69
2022/06/07 08:51:08;;;;;;;1.40;1.30;;;22.10;65.10;;;;;;5069056;27;43845;-69
2022/06/07 08:53:37;;;;;;;1.40;1.40;;;21.90;65.50;;;;;;5085937;27;43491;-68
2022/06/07 08:56:10;;;;;;;1.70;1.60;;;21.80;65.90;;;;;;5106607;27;44028;-69
2022/06/07 08:58:40;;;;;;;1.77;1.67;;;21.70;66.10;;;;;;5107096;27;44295;-68
2022/06/07 09:01:16;;;;;;;1.87;1.77;;;21.70;66.40;;;;;;5107051;27;43981;-71
2022/06/07 09:03:49;;;;;;;1.70;1.60;;;21.60;66.70;;;;;;5107349;27;43994;-68
2022/06/07 09:06:20;;;;;;;2.13;1.93;;;21.50;66.80;;;;;;5106588;27;43775;-69
2022/06/07 09:08:50;;;;;;;3.23;2.10;;;21.50;66.90;;;;;;5106770;27;44016;-69
2022/06/07 09:14:11;;;;;;;2.57;1.80;;;21.50;67.20;;;;;;5088536;27;44059;-70
2022/06/07 09:16:40;;;;;;;2.60;2.10;;;21.50;67.40;;;;;;5087776;27;45584;-68
2022/06/07 09:19:10;;;;;;;2.43;1.97;;;21.40;67.40;;;;;;5106707;27;43373;-69
2022/06/07 09:21:40;;;;;;;2.00;1.90;;;21.40;67.40;;;;;;5106719;27;43381;-68
2022/06/07 09:24:11;;;;;;;3.67;2.27;;;21.40;67.40;;;;;;5107428;27;43487;-67
2022/06/07 09:26:42;;;;;;;2.80;2.20;;;21.40;67.50;;;;;;5087985;27;47095;-68
2022/06/07 09:29:16;;;;;;;3.63;2.50;;;21.40;67.50;;;;;;5087843;27;45179;-69
2022/06/07 09:31:45;;;;;;;2.20;2.00;;;21.40;68.00;;;;;;5106416;27;43978;-69
2022/06/07 09:34:19;;;;;;;3.77;2.50;;;21.50;68.20;;;;;;5106852;27;43923;-68
2022/06/07 09:36:50;;;;;;;3.17;2.30;;;21.60;67.90;;;;;;5086547;27;44014;-68
2022/06/07 09:39:21;;;;;;;3.63;2.60;;;21.80;67.50;;;;;;5089365;28;43996;-70
2022/06/07 09:41:54;;;;;;;4.03;2.50;;;22.00;66.90;;;;;;5089896;28;43295;-69
2022/06/07 09:44:25;;;;;;;2.90;2.10;;;22.10;66.40;;;;;;5090066;28;43935;-69
2022/06/07 09:47:00;;;;;;;5.27;2.67;;;22.30;65.90;;;;;;5089712;28;44001;-69
2022/06/07 09:49:31;;;;;;;2.60;2.40;;;22.50;65.50;;;;;;5089351;28;43987;-68
2022/06/07 09:52:17;;;;;;;2.67;2.47;;;22.60;65.10;;;;;;5089765;28;43910;-69
2022/06/07 09:54:46;;;;;;;2.53;2.33;;;22.70;64.70;;;;;;5089990;28;43962;-68
2022/06/07 09:57:35;;;;;;;3.10;2.53;;;22.80;64.40;;;;;;5089310;28;44297;-69
2022/06/07 10:00:22;;;;;;;2.90;2.60;;;22.80;64.10;;;;;;5090199;27;43864;-68
2022/06/07 10:03:17;;;;;;;3.50;2.70;;;22.80;64.00;;;;;;5089933;27;43872;-70
2022/06/07 10:05:48;;;;;;;3.10;2.63;;;22.70;64.50;;;;;;5105502;27;43963;-69
2022/06/07 10:08:26;;;;;;;2.67;2.47;;;22.50;65.00;;;;;;5109373;27;44021;-70
2022/06/07 10:10:55;;;;;;;2.33;2.13;;;22.20;65.10;;;;;;5109433;27;43746;-69
2022/06/07 10:13:41;;;;;;;2.77;2.57;;;22.10;65.60;;;;;;5109471;27;43959;-68
2022/06/07 10:16:12;;;;;;;2.87;2.10;;;21.90;66.00;;;;;;5109629;27;44006;-68
2022/06/07 10:18:46;;;;;;;3.57;2.80;;;21.80;66.40;;;;;;5096270;27;44715;-68
2022/06/07 10:21:30;;;;;;;2.93;2.53;;;21.70;66.70;;;;;;5089169;28;43802;-69
2022/06/07 10:24:07;;;;;;;2.40;2.20;;;21.60;66.90;;;;;;5089430;28;43706;-69
2022/06/07 10:26:43;;;;;;;2.73;2.43;;;21.50;67.10;;;;;;5089397;28;43921;-68
2022/06/07 10:29:19;;;;;;;4.10;2.43;;;21.50;67.20;;;;;;5088998;28;44758;-68
2022/06/07 10:31:50;;;;;;;3.40;3.10;;;21.50;67.10;;;;;;5089115;28;43751;-70
2022/06/07 10:34:23;;;;;;;4.00;2.60;;;21.40;67.10;;;;;;5089365;27;44004;-68
2022/06/07 10:36:56;;;;;;;4.27;2.70;;;21.40;67.20;;;;;;5089298;28;44012;-68
2022/06/07 10:39:35;;;;;;;3.73;2.63;;;21.40;67.30;;;;;;5089111;28;44082;-69
2022/06/07 10:42:07;;;;;;;2.33;2.13;;;21.40;67.40;;;;;;5083894;28;44986;-68
2022/06/07 10:44:39;;;;;;;2.73;2.47;;;21.40;67.50;;;;;;5089285;28;43374;-68
2022/06/07 10:47:14;;;;;;;3.50;2.90;;;21.40;67.60;;;;;;5088892;28;43855;-70
2022/06/07 10:49:51;;;;;;;2.53;2.33;;;21.40;67.70;;;;;;5082631;27;45489;-69
2022/06/07 10:52:27;;;;;;;2.37;2.13;;;21.40;67.70;;;;;;5090255;27;44913;-69
2022/06/07 10:55:00;;;;;;;3.23;2.37;;;21.30;67.60;;;;;;5070728;27;44036;-68
2022/06/07 10:57:33;;;;;;;3.23;2.50;;;21.30;67.70;;;;;;5085105;27;44091;-68
2022/06/07 11:00:17;;;;;;;3.13;2.80;;;21.40;68.30;;;;;;5093547;27;43912;-68
2022/06/07 11:02:50;;;;;;;2.63;2.27;;;21.50;68.10;;;;;;5106496;27;43382;-69
2022/06/07 11:11:00;;;;;;;2.00;1.90;;;22.10;66.60;;;;;;5088977;27;44000;-68
2022/06/07 11:13:30;;;;;;;2.00;1.90;;;22.20;66.10;;;;;;5070347;28;44787;-69
2022/06/07 11:16:03;;;;;;;5.17;2.27;;;22.40;65.40;;;;;;5093683;27;43900;-68
2022/06/07 11:18:34;;;;;;;3.30;2.10;;;22.50;62.80;;;;;;5108751;27;43902;-68
2022/06/07 11:21:13;;;;;;;2.50;2.03;;;22.60;63.80;;;;;;5089616;27;44311;-68
2022/06/07 11:23:46;;;;;;;2.70;1.90;;;22.70;63.80;;;;;;5089014;27;44679;-68
2022/06/07 11:26:16;;;;;;;2.33;2.13;;;22.80;63.70;;;;;;5088596;27;44089;-69
2022/06/07 11:28:48;;;;;;;2.03;1.93;;;22.80;63.80;;;;;;5088867;27;43944;-68
2022/06/07 11:31:29;;;;;;;2.77;2.33;;;22.60;64.20;;;;;;5088682;27;44658;-70
2022/06/07 11:34:04;;;;;;;2.20;2.10;;;22.40;64.90;;;;;;5088423;27;43953;-69
2022/06/07 11:36:35;;;;;;;2.07;1.97;;;22.20;65.20;;;;;;5088502;27;43996;-69
2022/06/07 11:39:36;;;;;;;2.00;1.90;;;22.00;65.70;;;;;;5107675;27;43951;-69
2022/06/07 11:42:28;;;;;;;2.30;2.10;;;21.90;66.20;;;;;;5004920;28;43982;-69
2022/06/07 11:45:19;;;;;;;2.27;1.87;;;21.70;66.70;;;;;;5088707;27;43879;-69
2022/06/07 11:48:14;;;;;;;2.43;2.30;;;21.60;67.00;;;;;;5104776;27;43981;-69
2022/06/07 11:50:43;;;;;;;2.43;1.77;;;21.50;67.30;;;;;;5080685;27;43539;-68
2022/06/07 11:53:23;;;;;;;1.60;1.60;;;21.50;67.50;;;;;;5088078;27;44989;-69
2022/06/07 11:55:56;;;;;;;2.23;2.03;;;21.50;67.80;;;;;;5069078;27;45932;-68
2022/06/07 11:58:55;;;;;;;2.23;2.03;;;21.50;68.60;;;;;;5088030;27;44051;-68
2022/06/07 12:01:24;;;;;;;1.90;1.80;;;21.60;68.30;;;;;;5101250;27;44058;-70
2022/06/07 12:04:22;;;;;;;1.63;1.53;;;21.80;67.70;;;;;;5082939;27;46004;-69
2022/06/07 12:06:52;;;;;;;2.27;1.60;;;22.10;67.30;;;;;;5086744;28;43372;-68
2022/06/07 12:09:20;;;;;;;1.97;1.87;;;22.20;66.50;;;;;;5087574;28;44238;-69
2022/06/07 12:11:48;;;;;;;1.83;1.70;;;22.40;65.90;;;;;;5088058;28;43966;-68
2022/06/07 12:14:24;;;;;;;1.80;1.70;;;22.60;65.40;;;;;;5087460;28;44793;-69
2022/06/07 12:16:55;;;;;;;3.13;2.10;;;22.80;65.10;;;;;;5087425;28;43951;-68
2022/06/07 12:19:24;;;;;;;1.93;1.83;;;22.90;64.60;;;;;;5068675;28;43423;-69
2022/06/07 12:21:56;;;;;;;1.53;1.53;;;23.00;64.20;;;;;;5079189;28;44231;-68
2022/06/07 12:24:25;;;;;;;1.90;1.80;;;23.10;63.80;;;;;;5087068;28;43912;-69
2022/06/07 12:26:52;;;;;;;2.00;1.90;;;23.20;63.60;;;;;;5087775;27;43959;-69
2022/06/07 12:29:23;;;;;;;1.93;1.83;;;23.30;63.30;;;;;;5069511;27;44044;-68
2022/06/07 12:31:52;;;;;;;1.73;1.63;;;23.30;63.00;;;;;;5088249;27;44020;-69
2022/06/07 12:34:22;;;;;;;1.60;1.60;;;23.40;63.00;;;;;;5087629;27;44062;-69
2022/06/07 12:36:57;;;;;;;1.83;1.83;;;23.40;62.80;;;;;;5087619;27;43885;-69
2022/06/07 12:39:25;;;;;;;1.77;1.67;;;23.30;62.80;;;;;;5087061;27;43967;-69
2022/06/07 12:41:57;;;;;;;1.60;1.60;;;23.20;63.30;;;;;;5087943;27;43982;-69
2022/06/07 12:44:28;;;;;;;1.63;1.53;;;23.00;63.90;;;;;;5103047;27;43598;-69
2022/06/07 12:46:56;;;;;;;1.87;1.77;;;22.70;64.60;;;;;;5107207;27;43257;-68
2022/06/07 12:49:26;;;;;;;1.80;1.70;;;22.50;65.00;;;;;;5072684;27;43950;-69
2022/06/07 12:51:57;;;;;;;1.40;1.40;;;22.30;65.40;;;;;;5087958;27;43970;-69
2022/06/07 12:54:25;;;;;;;1.23;1.23;;;22.10;65.90;;;;;;5087114;27;45117;-69
2022/06/07 12:56:55;;;;;;;1.40;1.40;;;22.00;66.40;;;;;;5086909;27;43701;-68
2022/06/07 12:59:24;;;;;;;1.40;1.40;;;21.80;66.70;;;;;;5087417;27;43975;-68
2022/06/07 13:01:52;;;;;;;1.40;1.40;;;21.70;67.00;;;;;;5079605;27;44027;-68
2022/06/07 13:04:24;;;;;;;1.40;1.40;;;21.70;67.30;;;;;;5106869;27;43963;-69
2022/06/07 13:07:04;;;;;;;1.70;1.70;;;21.60;67.50;;;;;;5106696;27;43936;-69
2022/06/07 13:09:55;;;;;;;1.70;1.60;;;21.50;67.60;;;;;;5091291;27;44150;-68
2022/06/07 13:12:26;;;;;;;1.50;1.50;;;21.50;67.90;;;;;;5088426;27;43475;-69
2022/06/07 13:15:04;;;;;;;1.30;1.30;;;21.50;67.90;;;;;;5101628;27;44661;-68
2022/06/07 13:17:33;;;;;;;1.40;1.40;;;21.50;68.50;;;;;;5110361;27;44070;-68
2022/06/07 13:20:01;;;;;;;1.33;1.33;;;21.50;68.80;;;;;;5110084;27;43897;-68
2022/06/07 13:22:40;;;;;;;1.20;1.20;;;21.60;68.50;;;;;;5091727;27;43880;-69
2022/06/07 13:25:18;;;;;;;1.60;1.60;;;21.80;68.10;;;;;;5072132;28;44256;-68
2022/06/07 13:27:50;;;;;;;1.40;1.40;;;22.00;67.50;;;;;;5103997;27;43880;-69
2022/06/07 13:30:26;;;;;;;1.20;1.20;;;22.20;67.00;;;;;;5090687;27;44034;-69
2022/06/07 13:33:02;;;;;;;1.10;1.10;;;22.40;66.50;;;;;;5090834;27;43879;-69
2022/06/07 13:35:40;;;;;;;1.17;1.17;;;22.50;65.80;;;;;;5090539;27;43837;-68
2022/06/07 13:38:25;;;;;;;1.30;1.30;;;22.70;65.30;;;;;;5108818;27;43906;-68
2022/06/07 13:41:01;;;;;;;1.30;1.30;;;22.80;65.60;;;;;;5090946;27;44008;-68